Time;durP1;ratioP1;P1;durP2;ratioP2;P2;SDS_P1;SDS_P2;PMS_P1;PMS_P2;Temp;Humidity;BMP_temperature;BMP_pressure;BME280_temperature;BME280_humidity;BME280_pressure;Samples;Min_cycle;Max_cycle;Signal;HPM_P1;HPM_P2
2023/10/18 00:00:51;;;;;;;;;;;;;;;2.70;100.00;95438.66;10509668;28;2597;-76
2023/10/18 00:05:54;;;;;;;;;;;;;;;2.71;100.00;95439.47;10511851;28;2596;-76
2023/10/18 00:10:57;;;;;;;;;;;;;;;2.74;100.00;95432.91;10509662;28;4769;-77
2023/10/18 00:15:59;;;;;;;;;;;;;;;2.80;100.00;95426.66;10518962;28;2657;-77
2023/10/18 00:21:02;;;;;;;;;;;;;;;2.74;100.00;95422.28;10511388;28;2593;-75
2023/10/18 00:26:04;;;;;;;;;;;;;;;2.71;100.00;95411.09;10510252;28;2879;-76
2023/10/18 00:31:07;;;;;;;;;;;;;;;2.67;100.00;95412.59;10510871;28;2694;-76
2023/10/18 00:36:11;;;;;;;;;;;;;;;2.68;100.00;95405.44;10509668;28;2636;-76
2023/10/18 00:41:16;;;;;;;;;;;;;;;2.61;100.00;95412.72;10512156;28;2641;-76
2023/10/18 00:46:18;;;;;;;;;;;;;;;2.46;100.00;95401.78;10513119;28;2704;-77
2023/10/18 00:51:24;;;;;;;;;;;;;;;2.37;100.00;95398.66;10510828;28;2637;-78
2023/10/18 00:56:27;;;;;;;;;;;;;;;2.44;100.00;95402.00;10508628;28;2609;-78
2023/10/18 01:01:35;;;;;;;;;;;;;;;2.46;100.00;95394.63;10504671;28;2635;-76
2023/10/18 01:06:38;;;;;;;;;;;;;;;2.45;100.00;95387.69;10506079;28;2617;-76
2023/10/18 01:11:41;;;;;;;;;;;;;;;2.44;100.00;95380.78;10488203;28;4690;-75
2023/10/18 01:16:44;;;;;;;;;;;;;;;2.42;100.00;95382.88;10510386;28;2590;-75
2023/10/18 01:21:47;;;;;;;;;;;;;;;2.33;100.00;95374.44;10510763;28;2728;-75
2023/10/18 01:26:49;;;;;;;;;;;;;;;2.46;100.00;95370.72;10507376;28;2574;-76
2023/10/18 01:31:55;;;;;;;;;;;;;;;2.31;100.00;95365.09;10508447;28;2565;-76
2023/10/18 01:36:57;;;;;;;;;;;;;;;2.22;100.00;95356.69;10508307;28;2606;-77
2023/10/18 01:42:01;;;;;;;;;;;;;;;2.20;100.00;95363.25;10521025;28;2619;-76
2023/10/18 01:47:06;;;;;;;;;;;;;;;2.15;100.00;95356.00;10520149;28;2549;-77
2023/10/18 01:52:12;;;;;;;;;;;;;;;2.19;100.00;95356.34;10514125;28;2664;-74
2023/10/18 01:57:15;;;;;;;;;;;;;;;2.17;100.00;95338.03;10519160;28;2741;-75
2023/10/18 02:02:17;;;;;;;;;;;;;;;2.20;100.00;95342.84;10517764;28;2586;-75
2023/10/18 02:07:20;;;;;;;;;;;;;;;2.25;100.00;95328.91;10519823;28;4656;-77
2023/10/18 02:12:22;;;;;;;;;;;;;;;2.22;100.00;95322.19;10518907;28;2568;-77
2023/10/18 02:17:27;;;;;;;;;;;;;;;2.23;100.00;95321.19;10513942;28;2583;-76
2023/10/18 02:22:29;;;;;;;;;;;;;;;2.30;100.00;95315.75;10515346;28;2621;-76
2023/10/18 02:27:36;;;;;;;;;;;;;;;2.30;100.00;95311.25;10517809;28;2780;-77
2023/10/18 02:32:41;;;;;;;;;;;;;;;2.39;100.00;95312.50;10512296;28;2621;-76
2023/10/18 02:37:44;;;;;;;;;;;;;;;2.30;100.00;95313.09;10513902;28;2558;-76
2023/10/18 02:42:47;;;;;;;;;;;;;;;2.07;100.00;95304.13;10514660;28;2808;-76
2023/10/18 02:47:51;;;;;;;;;;;;;;;2.04;100.00;95296.66;10511715;28;2566;-75
2023/10/18 02:52:54;;;;;;;;;;;;;;;2.02;100.00;95290.75;10495710;28;2683;-76
2023/10/18 02:57:56;;;;;;;;;;;;;;;2.08;100.00;95270.47;10494106;28;2649;-76
2023/10/18 03:03:01;;;;;;;;;;;;;;;2.05;100.00;95265.63;10515414;28;2602;-76
2023/10/18 03:08:04;;;;;;;;;;;;;;;2.06;100.00;95262.75;10500546;28;4911;-77
2023/10/18 03:13:11;;;;;;;;;;;;;;;2.05;100.00;95261.13;10521350;28;2616;-77
2023/10/18 03:18:16;;;;;;;;;;;;;;;1.97;100.00;95258.81;10515803;28;2685;-75
2023/10/18 03:23:19;;;;;;;;;;;;;;;1.93;100.00;95255.03;10513060;28;2577;-76
2023/10/18 03:28:23;;;;;;;;;;;;;;;2.03;100.00;95257.09;10519153;28;2755;-77
2023/10/18 03:33:28;;;;;;;;;;;;;;;1.97;100.00;95253.53;10513848;28;2693;-75
2023/10/18 03:38:39;;;;;;;;;;;;;;;2.07;100.00;95261.69;10529619;28;2669;-77
2023/10/18 03:43:42;;;;;;;;;;;;;;;2.20;100.00;95257.19;10519877;28;3304;-77
2023/10/18 03:48:46;;;;;;;;;;;;;;;2.05;100.00;95244.44;10514199;28;2620;-76
2023/10/18 03:53:52;;;;;;;;;;;;;;;2.05;100.00;95239.94;10525539;28;2591;-75
2023/10/18 03:59:00;;;;;;;;;;;;;;;2.00;100.00;95239.81;10517888;28;2593;-76
2023/10/18 04:04:05;;;;;;;;;;;;;;;2.03;100.00;95235.88;10510636;28;2663;-77
2023/10/18 04:09:15;;;;;;;;;;;;;;;2.09;100.00;95241.06;10508273;28;4745;-76
2023/10/18 04:14:20;;;;;;;;;;;;;;;2.13;100.00;95230.81;10513249;28;2584;-77
2023/10/18 04:19:24;;;;;;;;;;;;;;;2.16;100.00;95225.03;10494583;28;2593;-76
2023/10/18 04:24:28;;;;;;;;;;;;;;;2.17;100.00;95216.84;10513344;28;2499;-75
2023/10/18 04:29:33;;;;;;;;;;;;;;;2.08;100.00;95212.94;10514382;28;2854;-74
2023/10/18 04:34:35;;;;;;;;;;;;;;;2.33;100.00;95222.44;10516214;28;2603;-75
2023/10/18 04:39:38;;;;;;;;;;;;;;;2.29;100.00;95213.34;10514665;28;2612;-74
2023/10/18 04:44:41;;;;;;;;;;;;;;;2.33;100.00;95203.88;10518578;28;2596;-76
2023/10/18 04:55:04;;;;;;;;;;;;;;;2.15;100.00;95203.00;10516820;28;2985;-76
2023/10/18 05:00:24;;;;;;;;;;;;;;;2.37;100.00;95199.72;10523739;28;2580;-75
2023/10/18 05:05:27;;;;;;;;;;;;;;;2.40;100.00;95189.44;10515092;28;2581;-74
2023/10/18 05:10:29;;;;;;;;;;;;;;;2.42;100.00;95184.72;10512960;28;4821;-76
2023/10/18 05:15:32;;;;;;;;;;;;;;;2.66;100.00;95177.44;10507390;28;2962;-74
2023/10/18 05:20:55;;;;;;;;;;;;;;;2.62;100.00;95171.03;10500880;28;2611;-76
2023/10/18 05:26:08;;;;;;;;;;;;;;;2.47;100.00;95167.28;10511954;28;2573;-73
2023/10/18 05:31:44;;;;;;;;;;;;;;;2.26;100.00;95171.41;10509641;28;2546;-77
2023/10/18 05:36:57;;;;;;;;;;;;;;;2.27;100.00;95184.41;10536087;28;2530;-75
2023/10/18 05:42:04;;;;;;;;;;;;;;;2.51;100.00;95193.09;10521398;28;2529;-76
2023/10/18 05:47:08;;;;;;;;;;;;;;;2.70;100.00;95202.47;10510950;28;2693;-77
2023/10/18 05:52:36;;;;;;;;;;;;;;;2.70;100.00;95194.50;10510845;28;2594;-76
2023/10/18 05:57:40;;;;;;;;;;;;;;;2.68;100.00;95186.00;10514799;28;2550;-75
2023/10/18 06:02:43;;;;;;;;;;;;;;;2.52;100.00;95177.97;10504856;28;2671;-72
2023/10/18 06:07:46;;;;;;;;;;;;;;;2.38;100.00;95188.06;10504502;28;4713;-74
2023/10/18 06:12:49;;;;;;;;;;;;;;;2.39;100.00;95197.63;10514042;28;2519;-76
2023/10/18 06:17:54;;;;;;;;;;;;;;;2.62;100.00;95199.41;10520771;28;2838;-75
2023/10/18 06:23:36;;;;;;;;;;;;;;;2.65;100.00;95190.94;10527750;28;2607;-76
2023/10/18 06:28:37;;;;;;;;;;;;;;;2.61;100.00;95184.53;10530752;28;2632;-76
2023/10/18 06:33:40;;;;;;;;;;;;;;;2.55;100.00;95180.16;10527084;28;2570;-77
2023/10/18 06:38:43;;;;;;;;;;;;;;;2.85;100.00;95193.97;10527099;28;2566;-77
2023/10/18 06:43:45;;;;;;;;;;;;;;;2.81;100.00;95178.78;10531890;28;2686;-77
2023/10/18 06:48:48;;;;;;;;;;;;;;;2.79;100.00;95186.16;10519754;28;2836;-78
2023/10/18 06:54:14;;;;;;;;;;;;;;;2.97;100.00;95176.13;10518156;28;2811;-77
2023/10/18 06:59:25;;;;;;;;;;;;;;;3.16;100.00;95165.25;10524647;28;2650;-79
2023/10/18 07:04:29;;;;;;;;;;;;;;;3.07;100.00;95178.16;10516235;28;2708;-76
2023/10/18 07:09:32;;;;;;;;;;;;;;;3.44;100.00;95170.50;10515774;28;4670;-77
2023/10/18 07:14:35;;;;;;;;;;;;;;;3.66;100.00;95175.84;10511782;28;2617;-77
2023/10/18 07:19:47;;;;;;;;;;;;;;;3.86;100.00;95164.69;10523773;28;2705;-78
2023/10/18 07:24:54;;;;;;;;;;;;;;;3.88;100.00;95157.28;10516917;28;2562;-76
2023/10/18 07:29:59;;;;;;;;;;;;;;;4.10;100.00;95159.94;10519588;28;2557;-76
2023/10/18 07:35:05;;;;;;;;;;;;;;;4.19;100.00;95153.13;10520512;28;2670;-86
2023/10/18 07:40:10;;;;;;;;;;;;;;;4.65;100.00;95153.63;10516123;28;2538;-76
2023/10/18 07:45:14;;;;;;;;;;;;;;;4.51;100.00;95155.88;10521567;28;2843;-76
2023/10/18 07:50:41;;;;;;;;;;;;;;;4.81;100.00;95135.94;10516244;28;2616;-76
2023/10/18 07:55:47;;;;;;;;;;;;;;;4.72;100.00;95118.81;10509447;28;2675;-76
2023/10/18 08:01:09;;;;;;;;;;;;;;;4.65;100.00;95119.03;10510677;28;2708;-77
2023/10/18 08:06:26;;;;;;;;;;;;;;;4.74;100.00;95125.50;10509212;28;2780;-77
2023/10/18 08:11:32;;;;;;;;;;;;;;;4.83;100.00;95115.16;10510438;28;4717;-78
2023/10/18 08:16:43;;;;;;;;;;;;;;;4.98;100.00;95128.63;10512536;28;2610;-77
2023/10/18 08:21:58;;;;;;;;;;;;;;;5.56;100.00;95115.44;10509479;28;2714;-78
2023/10/18 08:27:09;;;;;;;;;;;;;;;5.38;100.00;95111.34;10511334;28;2619;-74
2023/10/18 08:32:14;;;;;;;;;;;;;;;5.57;100.00;95101.06;10513297;28;2629;-76
2023/10/18 08:37:17;;;;;;;;;;;;;;;5.66;100.00;95107.47;10520365;28;2533;-73
2023/10/18 08:42:20;;;;;;;;;;;;;;;5.74;100.00;95101.69;10499438;28;2687;-76
2023/10/18 08:47:23;;;;;;;;;;;;;;;6.08;100.00;95099.44;10518962;28;2617;-77
2023/10/18 08:52:28;;;;;;;;;;;;;;;5.94;100.00;95104.47;10510457;28;2619;-76
2023/10/18 08:57:34;;;;;;;;;;;;;;;6.31;100.00;95092.88;10516555;28;2841;-75
2023/10/18 09:02:40;;;;;;;;;;;;;;;6.27;100.00;95086.44;10512396;28;2935;-76
2023/10/18 09:07:45;;;;;;;;;;;;;;;6.07;100.00;95086.38;10517765;28;2561;-76
2023/10/18 09:18:05;;;;;;;;;;;;;;;6.48;100.00;95065.91;10517480;28;2591;-76
2023/10/18 09:23:16;;;;;;;;;;;;;;;6.43;100.00;95081.94;10513178;28;2675;-75
2023/10/18 09:28:25;;;;;;;;;;;;;;;6.66;100.00;95072.63;10520431;28;2560;-76
2023/10/18 09:33:31;;;;;;;;;;;;;;;6.50;100.00;95075.28;10496357;28;2598;-77
2023/10/18 09:38:37;;;;;;;;;;;;;;;7.02;100.00;95071.56;10510716;28;2601;-75
2023/10/18 09:43:40;;;;;;;;;;;;;;;6.88;100.00;95067.84;10515024;28;2923;-75
2023/10/18 09:48:42;;;;;;;;;;;;;;;7.22;100.00;95057.38;10506613;28;2644;-78
2023/10/18 09:53:45;;;;;;;;;;;;;;;7.64;100.00;95052.75;10505308;28;2902;-75
2023/10/18 09:58:48;;;;;;;;;;;;;;;7.56;100.00;95068.28;10502641;28;2718;-75
2023/10/18 10:03:52;;;;;;;;;;;;;;;7.49;100.00;95058.94;10511938;28;2609;-74
2023/10/18 10:09:11;;;;;;;;;;;;;;;7.75;100.00;95062.34;10509245;28;4685;-76
2023/10/18 10:14:15;;;;;;;;;;;;;;;8.06;100.00;95045.09;10516696;28;2633;-77
2023/10/18 10:19:19;;;;;;;;;;;;;;;8.21;100.00;95046.09;10513012;28;2641;-75
2023/10/18 10:24:35;;;;;;;;;;;;;;;8.57;100.00;95026.06;10521039;28;2540;-75
2023/10/18 10:29:39;;;;;;;;;;;;;;;8.53;100.00;95025.03;10518061;28;2587;-75
2023/10/18 10:34:42;;;;;;;;;;;;;;;8.73;100.00;95017.94;10511458;28;2576;-76
2023/10/18 10:39:45;;;;;;;;;;;;;;;8.61;100.00;95010.25;10519720;28;2584;-78
2023/10/18 10:44:48;;;;;;;;;;;;;;;8.84;100.00;94996.13;10512805;28;2707;-77
2023/10/18 10:49:58;;;;;;;;;;;;;;;9.30;100.00;94989.53;10500769;28;3026;-76
2023/10/18 10:55:05;;;;;;;;;;;;;;;9.14;100.00;94968.22;10513777;28;2739;-76
2023/10/18 11:00:22;;;;;;;;;;;;;;;9.33;100.00;94946.03;10518822;28;2641;-76
2023/10/18 11:05:25;;;;;;;;;;;;;;;9.50;100.00;94946.38;10516546;28;2663;-76
2023/10/18 11:10:28;;;;;;;;;;;;;;;9.72;100.00;94943.16;10512319;28;4666;-77
2023/10/18 11:15:31;;;;;;;;;;;;;;;9.63;100.00;94926.13;10509475;28;2670;-76
2023/10/18 11:20:48;;;;;;;;;;;;;;;9.70;100.00;94899.72;10522686;28;2152;-78
2023/10/18 11:25:56;;;;;;;;;;;;;;;10.02;100.00;94893.63;10523701;28;2601;-77
2023/10/18 11:31:00;;;;;;;;;;;;;;;10.23;100.00;94883.41;10528711;28;2521;-77
2023/10/18 11:36:03;;;;;;;;;;;;;;;10.19;100.00;94893.91;10515437;28;2654;-77
2023/10/18 11:41:09;;;;;;;;;;;;;;;10.82;100.00;94874.63;10511031;28;2769;-75
2023/10/18 11:46:13;;;;;;;;;;;;;;;10.80;100.00;94855.28;10515492;28;2565;-76
2023/10/18 11:51:16;;;;;;;;;;;;;;;10.82;100.00;94853.13;10509522;28;2651;-76
2023/10/18 11:56:19;;;;;;;;;;;;;;;10.91;100.00;94850.53;10516153;28;2589;-77
2023/10/18 12:01:31;;;;;;;;;;;;;;;10.97;100.00;94848.53;10525515;28;2552;-77
2023/10/18 12:06:34;;;;;;;;;;;;;;;11.13;100.00;94825.59;10521578;28;1997;-76
2023/10/18 12:11:37;;;;;;;;;;;;;;;11.57;100.00;94824.16;10508187;28;4738;-76
2023/10/18 12:16:41;;;;;;;;;;;;;;;11.58;100.00;94820.41;10510516;28;2816;-77
2023/10/18 12:21:54;;;;;;;;;;;;;;;11.51;100.00;94814.59;10507400;28;2537;-75
2023/10/18 12:26:58;;;;;;;;;;;;;;;11.54;100.00;94827.47;10511675;28;2585;-76
2023/10/18 12:32:19;;;;;;;;;;;;;;;11.48;100.00;94817.91;10512318;28;2655;-75
2023/10/18 12:37:21;;;;;;;;;;;;;;;11.91;100.00;94799.47;10515175;28;2491;-76
2023/10/18 12:42:25;;;;;;;;;;;;;;;12.00;100.00;94781.47;10523061;28;1913;-77
2023/10/18 12:47:28;;;;;;;;;;;;;;;12.00;100.00;94776.09;10519195;28;1585;-78
2023/10/18 12:52:43;;;;;;;;;;;;;;;11.99;100.00;94774.50;10517883;28;2581;-76
2023/10/18 12:57:49;;;;;;;;;;;;;;;12.05;100.00;94753.63;10510094;28;2593;-74
2023/10/18 13:03:15;;;;;;;;;;;;;;;12.15;100.00;94756.03;10514021;28;2615;-75
2023/10/18 13:08:22;;;;;;;;;;;;;;;12.00;100.00;94738.38;10507943;28;4697;-75
2023/10/18 13:13:30;;;;;;;;;;;;;;;12.37;100.00;94734.47;10510165;28;2620;-75
2023/10/18 13:18:32;;;;;;;;;;;;;;;12.69;100.00;94732.53;10493442;28;2609;-76
2023/10/18 13:23:35;;;;;;;;;;;;;;;12.58;100.00;94726.63;10465110;28;2548;-76
2023/10/18 13:28:48;;;;;;;;;;;;;;;12.81;100.00;94726.56;10443286;28;3051;-76
2023/10/18 13:33:53;;;;;;;;;;;;;;;12.77;100.00;94726.38;10483320;28;2036;-76
2023/10/18 13:38:56;;;;;;;;;;;;;;;12.41;100.00;94705.81;10489346;28;1787;-75
2023/10/18 13:43:58;;;;;;;;;;;;;;;12.41;100.00;94721.19;10478609;28;2600;-75
2023/10/18 13:49:00;;;;;;;;;;;;;;;12.22;100.00;94710.63;10470335;28;2645;-76
2023/10/18 13:54:04;;;;;;;;;;;;;;;12.10;100.00;94708.50;10479243;28;2597;-75
2023/10/18 13:59:06;;;;;;;;;;;;;;;12.37;100.00;94710.22;10453451;28;2677;-79
2023/10/18 14:04:13;;;;;;;;;;;;;;;12.10;100.00;94692.34;10474094;28;2820;-75
2023/10/18 14:09:16;;;;;;;;;;;;;;;12.24;100.00;94692.25;10469338;28;2614;-75
2023/10/18 14:14:18;;;;;;;;;;;;;;;11.99;100.00;94685.63;10473664;28;2748;-75
2023/10/18 14:19:23;;;;;;;;;;;;;;;11.88;100.00;94671.59;10493269;28;2663;-76
2023/10/18 14:24:28;;;;;;;;;;;;;;;11.94;100.00;94666.09;10512045;28;2582;-75
2023/10/18 14:29:32;;;;;;;;;;;;;;;11.91;100.00;94643.28;10512640;28;2653;-77
2023/10/18 14:34:35;;;;;;;;;;;;;;;12.01;100.00;94656.47;10505619;28;2785;-75
2023/10/18 14:39:38;;;;;;;;;;;;;;;12.21;100.00;94665.91;10511025;28;2678;-75
2023/10/18 14:44:41;;;;;;;;;;;;;;;12.25;100.00;94664.19;10509964;28;2565;-74
2023/10/18 14:49:45;;;;;;;;;;;;;;;12.34;100.00;94661.53;10492852;28;2741;-77
2023/10/18 14:54:49;;;;;;;;;;;;;;;12.24;100.00;94649.13;10510591;28;2656;-75
2023/10/18 14:59:51;;;;;;;;;;;;;;;12.10;100.00;94648.44;10515217;28;2557;-74
2023/10/18 15:04:53;;;;;;;;;;;;;;;11.95;100.00;94646.13;10508366;28;2612;-75
2023/10/18 15:09:56;;;;;;;;;;;;;;;11.75;100.00;94648.22;10513103;28;4618;-74
2023/10/18 15:14:59;;;;;;;;;;;;;;;11.61;100.00;94652.91;10513172;28;2681;-76
2023/10/18 15:20:02;;;;;;;;;;;;;;;11.51;100.00;94643.16;10512255;28;2761;-79
2023/10/18 15:25:04;;;;;;;;;;;;;;;11.32;100.00;94619.16;10515896;28;2818;-80
2023/10/18 15:30:09;;;;;;;;;;;;;;;11.34;100.00;94633.09;10514363;28;2544;-77
2023/10/18 15:35:12;;;;;;;;;;;;;;;11.35;100.00;94633.88;10514653;28;2587;-79
2023/10/18 15:40:15;;;;;;;;;;;;;;;11.28;100.00;94628.13;10517617;28;2823;-79
2023/10/18 15:45:18;;;;;;;;;;;;;;;11.30;100.00;94629.41;10497784;28;2657;-77
2023/10/18 15:50:20;;;;;;;;;;;;;;;11.30;100.00;94626.72;10528099;28;2042;-77
2023/10/18 15:55:24;;;;;;;;;;;;;;;11.15;100.00;94629.78;10528107;28;1511;-77
2023/10/18 16:00:28;;;;;;;;;;;;;;;11.05;100.00;94621.94;10521256;28;1529;-78
2023/10/18 16:05:31;;;;;;;;;;;;;;;11.07;100.00;94623.25;10527495;28;1983;-78
2023/10/18 16:10:34;;;;;;;;;;;;;;;10.97;100.00;94614.59;10526035;28;4582;-78
2023/10/18 16:15:37;;;;;;;;;;;;;;;10.93;100.00;94613.59;10523560;28;1836;-78
2023/10/18 16:20:40;;;;;;;;;;;;;;;10.93;100.00;94616.28;10522738;28;2780;-78
2023/10/18 16:25:44;;;;;;;;;;;;;;;10.91;100.00;94602.38;10524540;28;2013;-78
2023/10/18 16:30:46;;;;;;;;;;;;;;;10.83;100.00;94599.31;10524169;28;1522;-80
2023/10/18 16:35:49;;;;;;;;;;;;;;;10.82;100.00;94616.53;10535201;28;1474;-79
2023/10/18 16:40:52;;;;;;;;;;;;;;;10.83;100.00;94631.56;10527403;28;1912;-79
2023/10/18 16:45:54;;;;;;;;;;;;;;;10.84;100.00;94640.44;10522381;28;1914;-78
2023/10/18 16:50:57;;;;;;;;;;;;;;;10.82;100.00;94643.44;10527783;28;1673;-80
2023/10/18 16:55:59;;;;;;;;;;;;;;;10.85;100.00;94635.84;10523848;28;1554;-80
2023/10/18 17:01:02;;;;;;;;;;;;;;;10.71;100.00;94635.88;10511369;28;1527;-79
2023/10/18 17:06:10;;;;;;;;;;;;;;;10.60;100.00;94634.50;10529059;28;2731;-80
2023/10/18 17:11:13;;;;;;;;;;;;;;;10.60;100.00;94656.00;10524497;28;4453;-78
2023/10/18 17:16:16;;;;;;;;;;;;;;;10.53;100.00;94661.78;10514746;28;2627;-79
2023/10/18 17:21:21;;;;;;;;;;;;;;;10.34;100.00;94656.50;10508518;28;2689;-79
2023/10/18 17:26:25;;;;;;;;;;;;;;;10.21;100.00;94660.75;10506546;28;2909;-80
2023/10/18 17:31:29;;;;;;;;;;;;;;;10.07;100.00;94659.97;10507860;28;2786;-81
2023/10/18 17:36:32;;;;;;;;;;;;;;;9.90;100.00;94665.88;10506212;28;2787;-81
2023/10/18 17:41:34;;;;;;;;;;;;;;;9.73;100.00;94628.91;10511437;28;2797;-79
2023/10/18 17:46:37;;;;;;;;;;;;;;;9.52;100.00;94616.91;10509624;28;2847;-80
2023/10/18 17:51:40;;;;;;;;;;;;;;;9.40;100.00;94646.09;10511716;28;2759;-80
2023/10/18 17:56:43;;;;;;;;;;;;;;;9.36;100.00;94645.09;10511892;28;2710;-80
2023/10/18 18:01:51;;;;;;;;;;;;;;;9.27;100.00;94636.13;10506520;28;2723;-78
2023/10/18 18:06:54;;;;;;;;;;;;;;;9.27;100.00;94633.44;10508128;28;4630;-76
2023/10/18 18:11:57;;;;;;;;;;;;;;;9.30;100.00;94644.38;10489076;28;2702;-77
2023/10/18 18:17:00;;;;;;;;;;;;;;;9.38;100.00;94649.06;10503728;28;2896;-78
2023/10/18 18:22:03;;;;;;;;;;;;;;;9.37;100.00;94619.88;10469891;28;2593;-79
2023/10/18 18:27:06;;;;;;;;;;;;;;;9.24;100.00;94620.63;10474762;28;2646;-80
2023/10/18 18:32:08;;;;;;;;;;;;;;;9.07;100.00;94546.88;10477324;28;2563;-79
2023/10/18 18:37:11;;;;;;;;;;;;;;;8.85;100.00;94525.28;10474007;28;2691;-81
2023/10/18 18:42:13;;;;;;;;;;;;;;;8.72;100.00;94553.63;10470207;28;2630;-82
2023/10/18 18:47:16;;;;;;;;;;;;;;;8.74;100.00;94564.03;10472212;28;2787;-79
2023/10/18 18:52:18;;;;;;;;;;;;;;;8.70;100.00;94552.28;10469024;28;3040;-78
2023/10/18 18:57:21;;;;;;;;;;;;;;;8.66;100.00;94558.25;10470140;28;2583;-79
2023/10/18 19:02:23;;;;;;;;;;;;;;;8.55;100.00;94570.19;10474463;28;2663;-76
2023/10/18 19:07:26;;;;;;;;;;;;;;;8.51;100.00;94555.78;10469410;28;4342;-77
2023/10/18 19:12:30;;;;;;;;;;;;;;;8.52;100.00;94541.28;10479125;28;2551;-78
2023/10/18 19:17:32;;;;;;;;;;;;;;;8.56;100.00;94547.69;10486480;28;2882;-77
2023/10/18 19:22:34;;;;;;;;;;;;;;;8.65;100.00;94548.63;10521509;28;2663;-77
2023/10/18 19:27:37;;;;;;;;;;;;;;;8.69;100.00;94534.63;10519418;28;2581;-76
2023/10/18 19:32:40;;;;;;;;;;;;;;;8.67;100.00;94540.28;10512188;28;2623;-78
2023/10/18 19:37:43;;;;;;;;;;;;;;;8.66;100.00;94547.53;10515300;28;2660;-79
2023/10/18 19:42:45;;;;;;;;;;;;;;;8.70;100.00;94546.94;10512918;28;2593;-77
2023/10/18 19:47:47;;;;;;;;;;;;;;;8.78;100.00;94543.59;10519807;28;2720;-76
2023/10/18 19:52:50;;;;;;;;;;;;;;;8.77;100.00;94542.00;10516800;28;2852;-77
2023/10/18 19:57:52;;;;;;;;;;;;;;;8.64;100.00;94535.50;10523763;28;2525;-79
2023/10/18 20:02:55;;;;;;;;;;;;;;;8.57;100.00;94527.84;10518251;28;2940;-78
2023/10/18 20:07:58;;;;;;;;;;;;;;;8.38;100.00;94519.00;10531371;27;4682;-77
2023/10/18 20:13:00;;;;;;;;;;;;;;;8.29;100.00;94521.53;10522779;28;2574;-77
2023/10/18 20:18:02;;;;;;;;;;;;;;;8.25;100.00;94517.81;10514739;28;2549;-77
2023/10/18 20:23:05;;;;;;;;;;;;;;;8.16;100.00;94516.91;10509395;28;3053;-78
2023/10/18 20:28:08;;;;;;;;;;;;;;;8.15;100.00;94511.84;10510644;28;2677;-78
2023/10/18 20:33:11;;;;;;;;;;;;;;;8.07;100.00;94513.25;10509479;28;2836;-79
2023/10/18 20:38:13;;;;;;;;;;;;;;;8.01;100.00;94512.53;10508308;28;2680;-79
2023/10/18 20:43:18;;;;;;;;;;;;;;;7.88;100.00;94507.09;10504764;28;2577;-78
2023/10/18 20:48:25;;;;;;;;;;;;;;;7.86;100.00;94496.69;10513993;28;2617;-78
2023/10/18 20:53:28;;;;;;;;;;;;;;;7.89;100.00;94484.59;10507752;28;2659;-78
2023/10/18 20:58:31;;;;;;;;;;;;;;;7.84;100.00;94472.09;10506351;28;2659;-78
2023/10/18 21:03:34;;;;;;;;;;;;;;;7.81;100.00;94478.00;10491818;28;2852;-78
2023/10/18 21:08:37;;;;;;;;;;;;;;;7.85;100.00;94471.00;10514457;28;4614;-78
2023/10/18 21:13:40;;;;;;;;;;;;;;;7.94;100.00;94453.22;10508873;28;2711;-77
2023/10/18 21:18:42;;;;;;;;;;;;;;;7.92;100.00;94470.66;10511215;28;2769;-78
2023/10/18 21:23:45;;;;;;;;;;;;;;;7.92;100.00;94465.31;10509388;28;2624;-77
2023/10/18 21:28:49;;;;;;;;;;;;;;;7.89;100.00;94463.19;10504543;28;2804;-78
2023/10/18 21:33:52;;;;;;;;;;;;;;;7.89;100.00;94458.66;10511432;28;2660;-79
2023/10/18 21:38:54;;;;;;;;;;;;;;;7.94;100.00;94445.19;10515503;28;2576;-77
2023/10/18 21:43:57;;;;;;;;;;;;;;;7.98;100.00;94446.22;10488703;28;2633;-78
2023/10/18 21:48:59;;;;;;;;;;;;;;;8.00;100.00;94419.94;10505826;28;2636;-80
2023/10/18 21:54:02;;;;;;;;;;;;;;;8.00;100.00;94411.91;10506725;28;2620;-79
2023/10/18 21:59:05;;;;;;;;;;;;;;;8.03;100.00;94416.72;10511083;28;2585;-80
2023/10/18 22:04:08;;;;;;;;;;;;;;;7.92;100.00;94398.41;10514463;28;2550;-80
2023/10/18 22:09:24;;;;;;;;;;;;;;;7.83;100.00;94366.97;10519813;28;4762;-80
2023/10/18 22:14:27;;;;;;;;;;;;;;;7.70;100.00;94369.56;10519870;28;2530;-79
2023/10/18 22:19:30;;;;;;;;;;;;;;;7.67;100.00;94375.50;10518052;28;2631;-80
2023/10/18 22:24:36;;;;;;;;;;;;;;;7.62;100.00;94370.22;10519849;28;2586;-81
2023/10/18 22:29:41;;;;;;;;;;;;;;;7.57;100.00;94365.72;10521090;28;2675;-81
2023/10/18 22:34:43;;;;;;;;;;;;;;;7.44;100.00;94355.75;10517103;28;2751;-80
2023/10/18 22:39:50;;;;;;;;;;;;;;;7.42;100.00;94364.06;10514359;28;2624;-80
2023/10/18 22:45:07;;;;;;;;;;;;;;;7.40;100.00;94360.09;10512226;28;2675;-80
2023/10/18 22:50:19;;;;;;;;;;;;;;;7.34;100.00;94351.34;10510761;28;2762;-81
2023/10/18 22:55:25;;;;;;;;;;;;;;;7.32;100.00;94343.63;10510171;28;2728;-80
2023/10/18 23:00:33;;;;;;;;;;;;;;;7.29;100.00;94324.66;10517325;28;2673;-80
2023/10/18 23:05:38;;;;;;;;;;;;;;;7.21;100.00;94319.97;10516073;28;2557;-80
2023/10/18 23:10:47;;;;;;;;;;;;;;;7.12;100.00;94311.00;10508576;28;4598;-80
2023/10/18 23:15:55;;;;;;;;;;;;;;;7.12;100.00;94316.34;10512852;28;2629;-80
2023/10/18 23:21:22;;;;;;;;;;;;;;;7.05;100.00;94306.00;10514501;28;2633;-80
2023/10/18 23:31:44;;;;;;;;;;;;;;;6.94;100.00;94305.34;10511954;28;2586;-80
2023/10/18 23:36:56;;;;;;;;;;;;;;;6.93;100.00;94295.72;10516503;28;2790;-80
2023/10/18 23:42:09;;;;;;;;;;;;;;;6.98;100.00;94289.53;10514851;28;2642;-78
2023/10/18 23:47:12;;;;;;;;;;;;;;;6.95;100.00;94290.91;10514310;28;2768;-79
2023/10/18 23:52:16;;;;;;;;;;;;;;;6.91;100.00;94295.22;10512071;28;2711;-81
2023/10/18 23:57:29;;;;;;;;;;;;;;;6.89;100.00;94292.06;10523394;28;2301;-81
